Time;durP1;ratioP1;P1;durP2;ratioP2;P2;SDS_P1;SDS_P2;PMS_P1;PMS_P2;Temp;Humidity;BMP_temperature;BMP_pressure;BME280_temperature;BME280_humidity;BME280_pressure;Samples;Min_cycle;Max_cycle;Signal;HPM_P1;HPM_P2
2023/10/15 00:01:08;;;;;;;10.03;5.93;;;16.10;73.50;;;16.43;51.39;94689.34;5002683;28;20528;-64
2023/10/15 00:03:35;;;;;;;9.50;5.77;;;16.10;73.50;;;16.40;51.45;94685.22;5002250;28;20477;-63
2023/10/15 00:06:03;;;;;;;10.30;5.27;;;16.10;73.80;;;16.39;52.07;94680.94;5003162;28;20473;-61
2023/10/15 00:08:30;;;;;;;13.37;5.67;;;16.00;74.10;;;16.37;51.83;94682.94;5001947;28;20462;-63
2023/10/15 00:11:00;;;;;;;11.10;4.93;;;16.00;74.70;;;16.36;51.72;94683.97;5002903;28;20480;-61
2023/10/15 00:13:27;;;;;;;6.83;5.00;;;16.00;74.30;;;16.35;51.72;94678.81;5002333;28;20482;-63
2023/10/15 00:15:56;;;;;;;17.90;5.70;;;16.00;74.30;;;16.33;51.80;94676.34;5003101;28;21010;-63
2023/10/15 00:18:23;;;;;;;10.17;5.87;;;16.00;74.60;;;16.33;51.85;94673.69;5001791;28;20975;-64
2023/10/15 00:20:54;;;;;;;9.50;5.10;;;16.00;75.00;;;16.31;52.19;94676.53;5003249;28;20473;-64
2023/10/15 00:23:25;;;;;;;8.70;5.27;;;16.00;75.60;;;16.30;52.32;94674.88;5001962;28;20815;-60
2023/10/15 00:25:52;;;;;;;6.80;5.20;;;15.90;75.50;;;16.29;52.34;94675.06;5002504;28;20473;-63
2023/10/15 00:28:21;;;;;;;20.67;6.00;;;15.90;75.50;;;16.25;52.38;94671.09;5002229;28;20454;-64
2023/10/15 00:30:48;;;;;;;11.30;5.17;;;15.90;76.00;;;16.23;52.12;94662.50;5002047;28;21074;-62
2023/10/15 00:33:16;;;;;;;9.93;5.07;;;15.90;76.10;;;16.20;52.54;94673.47;5001777;28;21014;-63
2023/10/15 00:35:45;;;;;;;10.73;4.53;;;15.90;76.70;;;16.19;52.62;94669.16;5001948;28;20501;-61
2023/10/15 00:38:16;;;;;;;14.27;6.00;;;15.80;77.00;;;16.15;52.69;94666.06;5002209;28;20544;-62
2023/10/15 00:40:45;;;;;;;15.47;5.87;;;15.80;76.90;;;16.12;52.79;94658.44;5001461;28;20446;-61
2023/10/15 00:43:17;;;;;;;7.10;4.70;;;15.80;77.50;;;16.10;52.81;94665.78;5002392;28;20454;-60
2023/10/15 00:45:46;;;;;;;12.03;6.00;;;15.80;77.50;;;16.05;52.67;94655.69;5001129;28;20508;-63
2023/10/15 00:48:22;;;;;;;13.77;6.30;;;15.70;77.40;;;16.01;52.54;94661.53;5002888;28;20512;-64
2023/10/15 00:50:49;;;;;;;8.70;5.13;;;15.70;77.40;;;15.98;53.00;94656.59;5000440;28;20470;-64
2023/10/15 00:53:22;;;;;;;11.10;4.70;;;15.60;77.90;;;15.94;52.86;94658.75;5002952;28;20566;-64
2023/10/15 00:55:52;;;;;;;11.30;4.73;;;15.60;77.60;;;15.89;52.70;94659.28;5000225;28;20490;-63
2023/10/15 00:58:31;;;;;;;9.20;6.03;;;15.60;77.30;;;15.86;52.94;94666.78;5003195;28;20500;-61
2023/10/15 01:01:20;;;;;;;19.33;5.60;;;15.50;78.10;;;15.86;52.86;94672.09;5001837;28;20471;-61
2023/10/15 01:03:50;;;;;;;9.67;5.30;;;15.50;78.80;;;15.82;53.06;94668.13;5001149;28;20548;-62
2023/10/15 01:06:26;;;;;;;10.63;4.70;;;15.50;78.40;;;15.80;53.05;94664.84;5002343;28;20477;-63
2023/10/15 01:08:53;;;;;;;13.50;5.30;;;15.50;78.50;;;15.77;53.59;94664.19;5001998;28;20468;-64
2023/10/15 01:11:27;;;;;;;7.83;5.00;;;15.50;79.40;;;15.75;53.37;94660.88;5001119;28;20482;-64
2023/10/15 01:13:55;;;;;;;14.03;5.57;;;15.40;79.30;;;15.71;53.49;94656.09;5001864;28;20572;-63
2023/10/15 01:16:27;;;;;;;19.20;6.60;;;15.40;79.70;;;15.67;53.38;94663.56;5000432;28;20509;-62
2023/10/15 01:19:02;;;;;;;14.13;6.37;;;15.30;79.70;;;15.64;53.59;94665.75;5002602;28;20461;-62
2023/10/15 01:21:32;;;;;;;10.73;5.83;;;15.30;79.80;;;15.57;53.62;94661.16;4999350;28;20474;-61
2023/10/15 01:24:05;;;;;;;17.57;6.00;;;15.30;79.70;;;15.52;53.36;94652.06;5002473;28;20504;-62
2023/10/15 01:26:39;;;;;;;18.37;5.90;;;15.20;79.50;;;15.47;53.68;94659.72;5000256;28;20561;-63
2023/10/15 01:29:08;;;;;;;14.30;5.33;;;15.20;79.70;;;15.44;53.89;94652.13;5001031;28;20445;-62
2023/10/15 01:31:41;;;;;;;10.67;5.20;;;15.10;80.20;;;15.39;53.67;94652.66;5000761;28;20627;-62
2023/10/15 01:34:10;;;;;;;12.57;5.67;;;15.10;80.20;;;15.35;53.67;94659.28;5000637;28;20561;-60
2023/10/15 01:36:39;;;;;;;14.27;5.03;;;15.10;80.30;;;15.31;53.88;94664.13;5001304;28;21029;-60
2023/10/15 01:39:12;;;;;;;7.30;4.97;;;15.00;80.90;;;15.29;53.80;94665.28;5002620;28;20493;-59
2023/10/15 01:41:41;;;;;;;8.87;5.80;;;15.00;80.90;;;15.27;53.70;94662.00;4997868;28;20501;-63
2023/10/15 01:44:10;;;;;;;14.73;5.50;;;14.90;80.80;;;15.22;54.03;94665.16;4998294;28;20517;-60
2023/10/15 01:46:48;;;;;;;11.07;4.50;;;14.90;80.80;;;15.17;53.89;94660.38;5001335;28;20567;-62
2023/10/15 01:49:31;;;;;;;6.40;4.83;;;14.90;80.90;;;15.15;54.39;94654.44;4998825;28;20537;-61
2023/10/15 01:52:05;;;;;;;9.40;4.73;;;14.90;82.20;;;15.13;54.27;94656.44;4998986;28;20989;-64
2023/10/15 01:54:34;;;;;;;7.03;5.40;;;14.80;82.20;;;15.08;54.11;94653.47;4997962;28;20477;-61
2023/10/15 01:57:06;;;;;;;10.30;5.70;;;14.80;82.20;;;15.03;54.37;94650.53;5001840;28;20597;-63
2023/10/15 01:59:42;;;;;;;13.90;5.60;;;14.80;82.60;;;15.01;54.19;94648.06;4998445;28;20454;-62
2023/10/15 02:02:13;;;;;;;10.03;5.23;;;14.70;82.70;;;15.01;54.57;94660.47;5000062;28;20465;-59
2023/10/15 02:04:45;;;;;;;20.83;6.17;;;14.70;83.00;;;14.96;54.52;94654.84;4999332;28;20509;-62
2023/10/15 02:07:16;;;;;;;10.47;5.50;;;14.70;83.60;;;14.94;54.96;94662.97;4998695;28;20478;-64
2023/10/15 02:09:44;;;;;;;8.07;5.70;;;14.70;83.90;;;14.94;55.05;94657.69;5000516;28;20446;-63
2023/10/15 02:12:13;;;;;;;11.10;6.17;;;14.60;84.40;;;14.93;54.92;94653.38;4999670;28;20485;-63
2023/10/15 02:14:43;;;;;;;8.90;6.33;;;14.60;84.50;;;14.92;54.98;94651.75;5000408;28;20584;-61
2023/10/15 02:17:13;;;;;;;14.63;6.27;;;14.60;84.70;;;14.89;55.07;94657.38;4998174;28;20525;-63
2023/10/15 02:19:44;;;;;;;9.37;5.40;;;14.60;85.00;;;14.86;54.91;94645.28;5000294;28;20981;-62
2023/10/15 02:22:13;;;;;;;9.23;5.60;;;14.60;84.70;;;14.84;55.27;94651.75;4997230;28;20493;-59
2023/10/15 02:24:46;;;;;;;12.43;5.87;;;14.50;85.40;;;14.82;55.21;94653.75;5001090;28;20550;-62
2023/10/15 02:27:22;;;;;;;18.30;6.57;;;14.50;85.80;;;14.82;55.46;94651.09;4997370;28;20561;-60
2023/10/15 02:29:50;;;;;;;13.83;6.03;;;14.50;86.10;;;14.80;55.50;94648.63;4999969;28;20532;-62
2023/10/15 02:32:30;;;;;;;11.67;5.97;;;14.50;86.10;;;14.81;55.52;94657.38;4998652;28;20521;-60
2023/10/15 02:34:58;;;;;;;17.87;6.20;;;14.50;86.60;;;14.81;55.65;94649.44;4997611;28;20907;-62
2023/10/15 02:37:27;;;;;;;8.67;6.57;;;14.50;86.60;;;14.78;55.84;94650.63;4999912;28;20481;-63
2023/10/15 02:39:54;;;;;;;14.90;5.43;;;14.50;86.90;;;14.78;55.74;94652.44;4998219;28;20482;-61
2023/10/15 02:42:30;;;;;;;16.30;6.63;;;14.50;86.70;;;14.73;55.63;94652.94;4999796;28;20550;-61
2023/10/15 02:44:58;;;;;;;21.97;6.93;;;14.40;87.10;;;14.70;55.94;94656.78;4997293;28;20449;-59
2023/10/15 02:47:31;;;;;;;9.37;6.27;;;14.40;87.80;;;14.67;55.93;94656.28;5000666;28;20539;-64
2023/10/15 02:50:01;;;;;;;19.43;7.03;;;14.40;87.90;;;14.67;55.65;94657.13;4997873;28;20454;-63
2023/10/15 02:52:35;;;;;;;12.77;6.40;;;14.30;87.70;;;14.67;55.67;94657.13;4999803;28;21229;-63
2023/10/15 02:55:09;;;;;;;11.03;6.60;;;14.30;87.90;;;14.66;56.19;94647.53;4998525;28;20494;-63
2023/10/15 02:57:39;;;;;;;20.60;6.87;;;14.30;88.10;;;14.65;55.88;94647.69;4998704;28;20610;-63
2023/10/15 03:00:14;;;;;;;12.00;5.77;;;14.30;88.10;;;14.63;56.05;94650.50;4999202;28;20454;-62
2023/10/15 03:02:43;;;;;;;9.20;6.47;;;14.30;88.60;;;14.62;56.33;94646.19;4997517;28;20470;-60
2023/10/15 03:05:14;;;;;;;12.83;6.13;;;14.40;88.80;;;14.61;56.17;94641.91;5000301;28;20468;-63
2023/10/15 03:07:43;;;;;;;12.83;6.63;;;14.30;89.00;;;14.61;56.15;94651.66;4996930;28;20475;-63
2023/10/15 03:10:12;;;;;;;17.43;6.47;;;14.30;89.00;;;14.58;56.12;94639.59;5000336;28;20500;-64
2023/10/15 03:12:44;;;;;;;7.13;5.77;;;14.30;89.20;;;14.58;56.23;94651.97;4997454;28;20540;-60
2023/10/15 03:15:16;;;;;;;17.30;8.50;;;14.30;89.50;;;14.56;56.36;94651.31;4997343;28;20502;-64
2023/10/15 03:17:43;;;;;;;13.57;5.80;;;14.30;89.50;;;14.54;56.30;94648.84;5005252;28;20473;-63
2023/10/15 03:20:27;;;;;;;20.17;6.50;;;14.30;89.50;;;14.53;56.42;94642.75;5004577;28;20457;-61
2023/10/15 03:23:00;;;;;;;14.20;6.03;;;14.20;89.40;;;14.53;56.53;94640.09;5004079;28;20815;-63
2023/10/15 03:25:28;;;;;;;10.13;5.70;;;14.20;89.60;;;14.53;56.57;94649.81;5006891;28;20556;-64
2023/10/15 03:28:00;;;;;;;10.87;5.67;;;14.20;90.00;;;14.52;56.42;94645.56;5003934;28;20545;-60
2023/10/15 03:30:28;;;;;;;8.87;6.17;;;14.20;89.80;;;14.51;56.52;94649.19;5006758;28;20492;-63
2023/10/15 03:33:00;;;;;;;17.90;5.80;;;14.20;90.00;;;14.50;56.46;94639.59;5006921;28;20461;-59
2023/10/15 03:35:32;;;;;;;8.50;5.67;;;14.20;90.00;;;14.49;56.60;94643.25;5006650;28;20517;-60
2023/10/15 03:38:04;;;;;;;12.40;6.27;;;14.20;90.20;;;14.47;56.32;94642.59;5005794;28;20507;-61
2023/10/15 03:40:38;;;;;;;15.47;6.73;;;14.20;90.20;;;14.47;56.60;94637.31;5004652;28;21117;-61
2023/10/15 03:43:07;;;;;;;9.83;5.33;;;14.20;90.20;;;14.46;56.68;94641.75;5004590;28;20481;-63
2023/10/15 03:45:40;;;;;;;14.50;6.57;;;14.20;90.70;;;14.46;56.80;94633.00;5005753;28;20469;-59
2023/10/15 03:48:14;;;;;;;15.00;6.17;;;14.20;90.40;;;14.46;56.88;94635.66;5004142;28;20451;-60
2023/10/15 03:50:53;;;;;;;10.10;6.70;;;14.10;90.40;;;14.43;56.56;94635.97;5006832;28;20477;-60
2023/10/15 03:53:22;;;;;;;12.60;6.40;;;14.10;90.40;;;14.43;57.02;94630.69;5004622;28;20529;-63
2023/10/15 03:55:50;;;;;;;10.00;6.20;;;14.10;90.70;;;14.38;57.10;94630.38;5005945;28;20505;-63
2023/10/15 03:58:21;;;;;;;13.60;6.80;;;14.10;90.70;;;14.38;57.27;94636.50;5004096;28;20463;-60
2023/10/15 04:01:05;;;;;;;17.20;6.03;;;14.10;90.70;;;14.35;56.99;94632.34;5004648;28;20500;-62
2023/10/15 04:03:35;;;;;;;17.60;6.70;;;14.10;91.00;;;14.34;57.10;94629.88;5006654;28;20472;-60
2023/10/15 04:06:05;;;;;;;12.97;6.17;;;14.10;91.00;;;14.31;57.26;94625.75;5006335;28;20477;-60
2023/10/15 04:08:32;;;;;;;16.07;6.50;;;14.00;91.00;;;14.29;57.21;94626.91;5006762;28;20473;-62
2023/10/15 04:11:02;;;;;;;17.00;6.63;;;14.00;91.00;;;14.26;57.57;94620.13;5006733;28;20587;-63
2023/10/15 04:13:31;;;;;;;13.90;6.87;;;14.00;91.20;;;14.24;57.56;94619.50;5003098;28;20474;-62
2023/10/15 04:15:58;;;;;;;15.53;7.30;;;14.00;91.30;;;14.22;57.81;94624.13;5006045;28;21026;-61
2023/10/15 04:18:26;;;;;;;12.07;6.90;;;14.00;91.40;;;14.21;57.48;94619.81;5003067;28;20458;-65
2023/10/15 04:20:53;;;;;;;15.63;6.70;;;14.00;91.50;;;14.20;57.77;94618.16;5006012;28;20480;-61
2023/10/15 04:23:31;;;;;;;20.97;7.67;;;13.90;91.40;;;14.18;57.35;94625.44;5003257;28;20466;-60
2023/10/15 04:26:01;;;;;;;14.60;7.50;;;13.90;91.50;;;14.16;57.46;94622.97;5004077;28;21132;-62
2023/10/15 04:28:30;;;;;;;30.83;7.60;;;13.90;91.50;;;14.14;57.76;94629.41;5002207;28;21078;-61
2023/10/15 04:30:58;;;;;;;9.57;6.27;;;13.90;91.80;;;14.12;57.84;94631.41;5001394;28;20478;-63
2023/10/15 04:33:27;;;;;;;14.27;6.60;;;13.90;91.70;;;14.10;57.89;94628.94;4999732;28;20557;-63
2023/10/15 04:35:56;;;;;;;13.50;6.17;;;13.80;91.70;;;14.09;57.58;94629.09;5001606;28;20915;-64
2023/10/15 04:38:28;;;;;;;10.67;6.53;;;13.80;91.60;;;14.08;57.67;94624.78;5003748;28;20473;-63
2023/10/15 04:41:03;;;;;;;15.07;7.20;;;13.80;91.70;;;14.07;57.75;94639.03;5001962;28;20467;-63
2023/10/15 04:43:41;;;;;;;13.83;8.10;;;13.80;91.60;;;14.05;58.04;94633.06;5000015;28;20458;-63
2023/10/15 04:46:08;;;;;;;29.30;6.83;;;13.80;91.90;;;14.03;57.89;94643.00;5002598;28;20477;-61
2023/10/15 04:48:36;;;;;;;12.60;7.63;;;13.70;91.90;;;14.02;57.86;94646.63;5000179;28;20545;-60
2023/10/15 04:51:05;;;;;;;14.17;7.97;;;13.80;92.10;;;14.01;57.96;94637.06;5002714;28;20512;-60
2023/10/15 04:53:33;;;;;;;21.07;7.90;;;13.70;92.20;;;13.99;58.12;94643.31;4999652;28;20454;-62
2023/10/15 04:56:01;;;;;;;25.67;8.37;;;13.70;92.20;;;13.97;58.09;94645.31;5002397;28;20493;-59
2023/10/15 04:58:28;;;;;;;21.10;6.47;;;13.70;92.10;;;13.97;58.21;94650.59;5000057;28;20450;-59
2023/10/15 05:00:59;;;;;;;14.87;7.47;;;13.70;92.20;;;13.97;58.49;94647.97;5002277;28;20474;-62
2023/10/15 05:03:26;;;;;;;20.73;7.87;;;13.70;92.40;;;13.98;58.06;94649.59;4999264;28;20972;-60
2023/10/15 05:05:55;;;;;;;25.93;9.60;;;13.70;92.40;;;13.99;58.43;94645.16;5002051;28;21078;-61
2023/10/15 05:08:24;;;;;;;27.53;8.57;;;13.70;92.60;;;14.01;58.32;94656.38;4999265;28;20463;-60
2023/10/15 05:10:51;;;;;;;20.90;9.13;;;13.80;92.70;;;14.03;58.29;94648.28;5001409;28;20481;-60
2023/10/15 05:13:19;;;;;;;27.10;8.70;;;13.80;92.70;;;14.05;58.38;94647.13;4999316;28;20509;-60
2023/10/15 05:15:46;;;;;;;14.93;10.90;;;13.80;92.70;;;14.09;58.24;94647.63;5001798;28;21059;-60
2023/10/15 05:18:16;;;;;;;27.30;9.83;;;13.80;92.70;;;14.12;58.53;94652.56;4999164;28;20501;-60
2023/10/15 05:20:45;;;;;;;23.33;10.47;;;13.80;92.70;;;14.16;58.20;94649.41;5001486;28;20529;-63
2023/10/15 05:23:13;;;;;;;19.80;9.20;;;13.90;92.80;;;14.21;58.09;94645.47;4999278;28;21315;-59
2023/10/15 05:25:40;;;;;;;19.93;10.10;;;14.00;92.80;;;14.27;58.20;94656.19;5002225;28;20645;-60
2023/10/15 05:28:08;;;;;;;28.33;8.83;;;14.00;92.70;;;14.33;58.11;94652.06;4998967;28;20890;-61
2023/10/15 05:30:35;;;;;;;15.30;8.77;;;14.00;92.60;;;14.41;57.94;94659.16;5002382;28;20462;-61
2023/10/15 05:33:04;;;;;;;28.03;10.30;;;14.10;92.50;;;14.46;57.53;94648.88;5002695;28;20480;-60
2023/10/15 05:35:34;;;;;;;28.30;10.70;;;14.20;92.20;;;14.46;57.52;94652.34;4998957;28;20502;-61
2023/10/15 05:38:02;;;;;;;27.40;9.33;;;14.20;91.90;;;14.47;57.46;94647.88;5002056;28;20450;-61
2023/10/15 05:40:29;;;;;;;18.90;9.13;;;14.20;91.70;;;14.47;57.95;94646.06;4998970;28;20558;-60
2023/10/15 05:42:57;;;;;;;21.00;9.30;;;14.20;92.20;;;14.52;57.57;94648.19;5002173;28;20453;-62
2023/10/15 05:45:24;;;;;;;25.43;9.60;;;14.20;91.90;;;14.57;57.74;94650.34;4998996;28;20454;-61
2023/10/15 05:47:51;;;;;;;19.63;8.90;;;14.30;92.10;;;14.72;57.37;94648.66;5002253;28;20485;-60
2023/10/15 05:50:18;;;;;;;18.63;9.80;;;14.40;92.10;;;14.94;57.33;94643.63;4999335;28;20537;-61
2023/10/15 05:52:47;;;;;;;17.70;9.83;;;14.60;92.10;;;15.24;57.03;94650.75;5002850;28;20470;-61
2023/10/15 05:55:14;;;;;;;20.63;9.50;;;14.80;92.00;;;15.63;56.42;94653.50;5006237;28;20485;-61
2023/10/15 05:57:43;;;;;;;118.97;13.37;;;15.10;91.50;;;16.04;55.59;94654.03;4998927;28;20489;-63
2023/10/15 06:02:57;;;;;;;28.23;12.30;;;15.90;90.60;;;16.88;54.05;94652.25;5001926;28;20492;-63
2023/10/15 06:05:24;;;;;;;30.20;15.33;;;16.30;89.70;;;17.29;53.13;94657.88;5000385;28;20457;-64
2023/10/15 06:07:54;;;;;;;24.23;14.87;;;16.70;88.10;;;17.68;52.69;94654.00;5000803;28;20470;-64
2023/10/15 06:10:21;;;;;;;33.30;16.33;;;17.10;86.30;;;18.09;51.70;94657.88;5000039;28;20465;-65
2023/10/15 06:12:49;;;;;;;24.37;12.87;;;17.50;84.40;;;18.48;51.13;94653.06;5001152;28;20497;-66
2023/10/15 06:15:16;;;;;;;22.70;13.40;;;17.90;82.60;;;18.87;49.85;94654.38;5000028;28;21029;-66
2023/10/15 06:17:44;;;;;;;33.30;12.43;;;18.30;81.10;;;19.22;49.81;94663.16;5000461;28;20505;-64
2023/10/15 06:20:14;;;;;;;25.73;13.73;;;18.60;79.50;;;19.60;48.62;94652.03;5005889;28;20478;-65
2023/10/15 06:22:42;;;;;;;16.93;12.13;;;19.00;77.80;;;20.01;47.94;94651.09;4999887;28;20469;-67
2023/10/15 06:25:11;;;;;;;460.13;35.73;;;19.40;76.50;;;20.45;47.59;94646.19;5000679;28;20569;-64
2023/10/15 06:27:39;;;;;;;180.93;19.00;;;19.80;75.50;;;20.92;47.25;94649.63;4999659;28;20474;-63
2023/10/15 06:30:09;;;;;;;20.00;10.53;;;20.30;74.30;;;21.41;46.20;94651.94;5000083;28;20450;-65
2023/10/15 06:32:37;;;;;;;17.57;8.87;;;20.70;72.70;;;21.86;45.28;94651.97;5002041;28;20998;-60
2023/10/15 06:35:06;;;;;;;13.60;8.30;;;21.10;71.40;;;22.30;44.59;94647.53;4998594;28;20528;-60
2023/10/15 06:37:34;;;;;;;18.00;9.47;;;21.60;69.60;;;22.72;44.20;94637.06;4999108;28;20483;-61
2023/10/15 06:40:01;;;;;;;14.27;9.13;;;22.00;68.70;;;23.14;43.00;94638.31;4999740;28;20532;-61
2023/10/15 06:42:30;;;;;;;27.80;10.43;;;22.40;67.60;;;23.57;42.98;94635.53;4999206;28;20513;-60
2023/10/15 06:44:57;;;;;;;17.83;9.90;;;22.80;66.20;;;24.00;42.13;94633.72;4999623;28;20446;-61
2023/10/15 06:47:24;;;;;;;24.37;10.00;;;23.30;65.40;;;24.42;41.90;94630.19;5000100;28;20471;-59
2023/10/15 06:49:53;;;;;;;22.27;10.60;;;23.60;64.30;;;24.83;40.97;94632.00;5000155;28;20453;-59
2023/10/15 06:52:20;;;;;;;27.43;9.70;;;24.00;62.60;;;25.27;39.91;94628.06;4999955;28;20470;-60
2023/10/15 06:54:48;;;;;;;22.67;8.17;;;24.50;61.20;;;25.64;39.72;94619.66;4999155;28;20560;-62
2023/10/15 06:57:16;;;;;;;11.30;8.80;;;24.80;61.40;;;26.03;38.77;94623.38;5000242;28;20482;-60
2023/10/15 06:59:44;;;;;;;14.17;8.13;;;25.20;59.40;;;26.45;38.27;94614.91;5000358;28;20457;-60
2023/10/15 07:02:13;;;;;;;15.60;8.80;;;25.70;58.60;;;26.85;38.13;94607.72;4999998;28;20469;-61
2023/10/15 07:04:41;;;;;;;17.60;9.20;;;26.10;58.00;;;27.23;37.57;94608.75;5000071;28;20461;-61
2023/10/15 07:07:08;;;;;;;19.43;8.83;;;26.50;56.80;;;27.62;36.63;94610.59;4999584;28;20512;-62
2023/10/15 07:09:37;;;;;;;17.23;8.50;;;26.90;55.90;;;28.08;36.57;94605.69;4999929;28;20449;-61
2023/10/15 07:12:06;;;;;;;16.37;10.00;;;27.40;55.00;;;28.57;35.68;94607.47;4999751;28;20484;-61
2023/10/15 07:14:33;;;;;;;19.93;8.40;;;28.00;54.40;;;28.98;34.59;94602.34;4999588;28;20464;-59
2023/10/15 07:17:03;;;;;;;12.07;8.27;;;28.40;53.00;;;29.33;34.37;94598.22;4999558;28;20568;-60
2023/10/15 07:19:30;;;;;;;30.80;7.67;;;28.90;51.40;;;29.67;33.34;94601.31;4999554;28;20441;-62
2023/10/15 07:21:57;;;;;;;16.10;7.73;;;29.30;51.20;;;30.10;33.51;94597.63;4999406;28;20486;-62
2023/10/15 07:24:25;;;;;;;16.67;7.10;;;29.70;50.60;;;30.50;32.29;94601.47;4999647;28;20464;-62
2023/10/15 07:26:52;;;;;;;15.60;6.97;;;30.20;49.70;;;30.88;32.08;94612.88;4999664;28;20544;-61
2023/10/15 07:29:20;;;;;;;10.03;6.10;;;30.60;48.80;;;31.24;31.61;94601.94;5000268;28;20871;-61
2023/10/15 07:31:48;;;;;;;14.93;6.67;;;31.00;47.80;;;31.60;30.87;94601.81;4999209;28;20270;-62
2023/10/15 07:34:16;;;;;;;8.73;6.50;;;31.40;47.00;;;31.89;30.48;94598.41;5000721;28;20209;-60
2023/10/15 07:36:45;;;;;;;15.57;5.47;;;31.70;46.20;;;32.16;30.09;94604.25;4999074;28;20289;-61
2023/10/15 07:39:12;;;;;;;16.70;7.20;;;32.10;45.80;;;32.40;30.07;94600.00;4999589;28;20209;-60
2023/10/15 07:41:39;;;;;;;17.13;6.60;;;32.30;45.00;;;32.59;29.52;94594.66;4998434;28;20289;-60
2023/10/15 07:44:07;;;;;;;17.90;7.10;;;32.50;44.50;;;32.76;29.18;94592.34;4999785;28;20202;-61
2023/10/15 07:46:34;;;;;;;14.03;5.20;;;32.70;44.10;;;32.93;28.88;94588.38;4997946;28;20226;-60
2023/10/15 07:49:02;;;;;;;11.68;5.75;;;32.80;43.50;;;33.05;28.57;94592.34;4999592;28;20268;-61
2023/10/15 07:51:31;;;;;;;25.92;6.93;;;32.90;43.30;;;33.16;28.48;94593.03;4996929;28;20305;-58
2023/10/15 07:53:58;;;;;;;13.52;6.13;;;32.90;43.00;;;33.24;28.02;94581.53;4998391;28;20206;-61
2023/10/15 07:56:26;;;;;;;26.52;6.65;;;32.90;42.80;;;33.33;27.86;94586.34;4995941;28;20353;-62
2023/10/15 07:58:52;;;;;;;13.25;6.18;;;32.90;42.70;;;33.36;28.03;94585.78;4999662;28;20206;-61
2023/10/15 08:01:19;;;;;;;16.13;6.00;;;32.90;42.30;;;33.40;27.55;94593.06;4997232;28;20223;-60
2023/10/15 08:03:46;;;;;;;21.77;6.13;;;32.90;42.10;;;33.41;27.86;94594.69;5001947;28;20570;-60
2023/10/15 08:06:14;;;;;;;16.25;5.45;;;32.90;41.60;;;33.46;27.11;94585.63;5000225;28;20383;-58
2023/10/15 08:08:45;;;;;;;18.90;5.93;;;33.00;41.40;;;33.54;27.46;94576.00;5003478;28;20351;-61
2023/10/15 08:11:12;;;;;;;14.10;6.88;;;33.00;41.20;;;33.50;26.66;94573.03;5003058;28;20238;-61
2023/10/15 08:13:40;;;;;;;13.63;5.65;;;33.00;41.20;;;33.39;27.11;94574.28;5000188;28;20596;-59
2023/10/15 08:16:08;;;;;;;20.73;5.63;;;32.90;41.10;;;33.31;26.98;94573.00;5003450;28;20656;-59
2023/10/15 08:18:35;;;;;;;20.88;7.07;;;32.80;41.00;;;33.35;27.10;94560.41;5000216;28;20707;-61
2023/10/15 08:21:03;;;;;;;13.48;6.18;;;32.80;41.10;;;33.51;26.86;94561.03;5003851;28;20337;-61
2023/10/15 08:23:30;;;;;;;13.82;6.20;;;32.90;41.10;;;33.65;26.57;94557.56;5000280;28;20243;-59
2023/10/15 08:25:59;;;;;;;14.48;5.78;;;33.00;41.10;;;33.81;27.12;94553.56;5003754;28;20222;-60
2023/10/15 08:28:26;;;;;;;19.85;6.40;;;33.10;40.80;;;33.98;26.36;94552.25;5004215;28;20558;-59
2023/10/15 08:30:54;;;;;;;12.65;6.45;;;33.20;40.50;;;34.09;26.34;94548.25;5000764;28;20223;-61
2023/10/15 08:33:21;;;;;;;13.98;6.20;;;33.30;40.30;;;34.21;26.84;94540.41;5000440;28;20199;-60
2023/10/15 08:35:49;;;;;;;41.53;8.43;;;33.50;40.20;;;34.38;26.46;94539.06;5003411;28;20612;-60
2023/10/15 08:38:17;;;;;;;9.85;6.45;;;33.60;40.10;;;34.55;26.48;94544.81;5000543;28;20299;-59
2023/10/15 08:40:45;;;;;;;18.67;6.22;;;33.80;39.90;;;34.76;25.41;94544.47;5003796;28;20198;-60
2023/10/15 08:43:18;;;;;;;12.15;6.82;;;33.90;39.80;;;34.95;25.43;94542.47;5000198;28;20354;-59
2023/10/15 08:45:45;;;;;;;17.45;6.53;;;34.10;39.50;;;35.07;25.80;94527.47;5000134;28;20652;-59
2023/10/15 08:48:15;;;;;;;18.65;6.70;;;34.30;39.10;;;35.11;25.46;94528.50;5004281;28;20652;-59
2023/10/15 08:50:44;;;;;;;11.77;6.28;;;34.30;38.50;;;35.05;25.55;94530.53;5003789;28;20206;-61
2023/10/15 08:53:11;;;;;;;14.13;6.65;;;34.30;38.60;;;35.07;24.67;94535.69;5000447;28;20214;-59
2023/10/15 08:55:38;;;;;;;18.67;8.48;;;34.30;38.60;;;35.18;25.68;94526.16;5003864;28;20230;-60
2023/10/15 08:58:09;;;;;;;15.18;6.55;;;34.40;38.70;;;35.31;24.69;94527.31;5003701;28;20935;-61
2023/10/15 09:00:38;;;;;;;11.43;7.30;;;34.50;38.60;;;35.46;25.37;94523.44;5000004;28;20260;-61
2023/10/15 09:03:07;;;;;;;20.55;6.38;;;34.70;38.50;;;35.62;24.80;94526.63;5003707;28;20293;-60
2023/10/15 09:05:37;;;;;;;17.48;5.80;;;34.80;38.20;;;35.73;24.63;94533.53;4999913;28;20207;-62
2023/10/15 09:08:12;;;;;;;17.35;6.68;;;34.90;37.90;;;35.83;24.26;94532.50;5002981;28;20721;-61
2023/10/15 09:10:41;;;;;;;17.75;6.55;;;35.00;37.60;;;35.92;24.77;94525.19;5001163;28;20313;-61
2023/10/15 09:13:14;;;;;;;13.65;5.75;;;35.10;37.70;;;35.97;24.31;94511.38;5001296;28;20293;-59
2023/10/15 09:15:48;;;;;;;16.30;6.35;;;35.20;37.50;;;35.92;24.06;94514.22;5001461;28;20238;-59
2023/10/15 09:18:17;;;;;;;7.85;5.10;;;35.20;37.20;;;35.84;24.66;94517.72;5000907;28;20312;-64
2023/10/15 09:20:46;;;;;;;12.43;6.25;;;35.20;37.30;;;35.79;24.26;94504.13;5002449;28;20213;-64
2023/10/15 09:23:21;;;;;;;23.00;6.65;;;35.10;37.20;;;35.79;23.97;94506.84;4999870;28;20297;-65
2023/10/15 09:25:53;;;;;;;31.42;5.63;;;35.10;37.10;;;35.76;24.79;94505.56;5002916;28;20230;-65
2023/10/15 09:28:21;;;;;;;24.58;6.35;;;35.00;37.30;;;35.77;24.55;94504.44;4999677;28;20269;-59
2023/10/15 09:30:51;;;;;;;14.32;5.75;;;35.10;37.40;;;35.78;24.77;94502.53;5001140;28;20244;-59
2023/10/15 09:33:28;;;;;;;12.20;6.03;;;35.10;37.40;;;35.85;24.51;94491.94;4999358;28;20694;-60
2023/10/15 09:35:55;;;;;;;12.80;5.97;;;35.20;37.40;;;35.88;24.74;94491.31;4999714;28;20234;-64
2023/10/15 09:38:22;;;;;;;20.13;6.60;;;35.20;37.50;;;35.97;24.40;94489.47;5000821;28;20207;-62
2023/10/15 09:40:50;;;;;;;10.93;5.28;;;35.20;37.40;;;36.05;24.08;94483.25;5000946;28;20226;-59
2023/10/15 09:43:17;;;;;;;11.43;5.90;;;35.30;37.20;;;36.14;24.33;94482.50;5000459;28;20595;-62
2023/10/15 09:45:45;;;;;;;13.93;5.82;;;35.40;37.10;;;36.27;24.33;94476.19;5001244;28;20567;-63
2023/10/15 09:48:14;;;;;;;11.32;6.10;;;35.50;36.90;;;36.41;24.17;94471.44;5000821;28;20206;-63
2023/10/15 09:50:42;;;;;;;19.83;5.72;;;35.60;36.90;;;36.50;24.41;94473.41;5000934;28;20199;-60
2023/10/15 09:53:16;;;;;;;8.80;6.18;;;35.70;37.00;;;36.59;24.36;94468.78;5000304;28;20207;-64
2023/10/15 09:55:45;;;;;;;15.98;5.95;;;35.80;37.10;;;36.63;23.64;94471.72;5000215;28;20206;-60
2023/10/15 09:58:12;;;;;;;15.02;6.75;;;35.80;36.60;;;36.60;24.23;94462.97;5000967;28;20209;-62
2023/10/15 10:00:59;;;;;;;21.20;8.30;;;35.90;36.80;;;36.70;24.35;94464.66;5000308;28;20202;-59
2023/10/15 10:04:25;;;;;;;9.65;6.30;;;35.90;36.80;;;36.85;24.11;94459.91;5002904;28;20372;-60
2023/10/15 10:07:04;;;;;;;15.68;5.60;;;36.00;36.50;;;36.99;24.11;94452.34;4977257;28;20226;-60
2023/10/15 10:10:21;;;;;;;20.15;7.40;;;36.10;36.60;;;37.13;23.49;94458.50;5000333;28;20201;-62
2023/10/15 10:13:21;;;;;;;17.90;6.00;;;36.30;36.40;;;37.20;23.17;94441.59;4979761;28;20243;-60
2023/10/15 10:15:54;;;;;;;9.93;5.40;;;36.40;35.70;;;37.19;23.86;94440.00;4999402;28;20223;-64
2023/10/15 10:18:22;;;;;;;13.38;5.00;;;36.40;36.20;;;37.17;23.82;94438.69;5001031;28;20209;-62
2023/10/15 10:20:51;;;;;;;13.05;5.07;;;36.40;35.90;;;37.10;23.72;94436.41;5000582;28;20273;-62
2023/10/15 10:23:18;;;;;;;12.02;6.68;;;36.30;35.70;;;37.02;23.56;94426.25;5000838;28;20206;-63
2023/10/15 10:25:46;;;;;;;13.80;7.28;;;36.30;35.80;;;37.00;23.40;94415.59;5000404;28;20639;-59
2023/10/15 10:28:15;;;;;;;17.10;5.18;;;36.20;36.10;;;36.99;23.51;94416.72;5000598;28;20209;-59